Dibrugarh Airport
VEMN : now visible

Airfield :











YOU CAN JOIN US ON...

 
LOGIN :

Register | Disclaimer

   EN    FR    IT 

 









Legend :    VFR   Marginal VFR   IFR   Intensive IFR   Very Intensive IFR
Visi :
Ceiling :
>= 8 km
>= 3000ft
5 to 8 km
1000 to 3000 ft
1500m to 5 km
500 to 1000 ft
800 to 1500m
200 to 500 ft
< 800m
< 200 ft
Symbols :   Thunderstorms  Fog  Heavy snow  Heavy precipitations  Wind > 20 kt






- Airport Elevation : 362 ft
- IATA code : DIB


VEMN - Dibrugarh

CURRENT METAR :
  • 180500Z VRB02KT 3000 -RA SCT018 OVC090 26/25 Q1003 NOSIG

EXPIRED METARs :
  • 180430Z 05003KT 3500 -RA SCT018 OVC090 26/25 Q1003 TEMPO 3000 -RA
  • 180400Z 04003KT 4000 -RA SCT018 OVC090 26/25 Q1003 NOSIG
  • 180330Z 02004KT 4000 -RA SCT018 OVC090 26/25 Q1003 NOSIG
  • 180300Z 02004KT 4000 -RA SCT018 OVC090 26/25 Q1003 NOSIG
  • 180230Z 36005KT 4000 -RA SCT018 OVC090 25/25 Q1003 NOSIG
  • 180200Z 36007KT 3000 -RA SCT018 OVC090 25/24 Q1002 NOSIG
  • 180130Z 01006KT 2500 -RA SCT018 OVC090 25/24 Q1002 BECMG 3000 RA
  • 180100Z 36005KT 2500 -RA SCT018 OVC090 25/24 Q1002 BECMG 3000 RA
  • 180030Z 24006KT 2000 -RA SCT018 OVC090 25/24 Q1002 NOSIG

TAF TAF VEMN
Valid from the 18 at 03:00 until the 18 at 12:00 UTC


180200Z 1803/1812 36007KT 3000 -RA SCT018 OVC090
BECMG 1804/1806 5000 -RA BR
VECF FIR / Asia



MET'MAP, your aeronautical weather chart ! - Copyright ORBIFLY December 2007 - Disclaimer

ORBIFLY MET'MAP TEAM :

Programming & Development : Alexandra Zaïnal
Original concept : Baudouin d'Aumeries
Technical & hardware support : Manuel Goepfert
Assistance : Marc-Olivier Méhu




SOURCES & CREDITS :

   NOAA       Earth
Advisory